sensor_id;sensor_type;location;lat;lon;timestamp;temperature;humidity
22765;DHT22;11549;50.852;3.816;2023-07-13T00:01:20;17.50;99.90
22765;DHT22;11549;50.852;3.816;2023-07-13T00:03:53;17.40;99.90
22765;DHT22;11549;50.852;3.816;2023-07-13T00:06:23;17.40;99.90
22765;DHT22;11549;50.852;3.816;2023-07-13T00:09:00;17.40;99.90
22765;DHT22;11549;50.852;3.816;2023-07-13T00:11:38;17.40;99.90
22765;DHT22;11549;50.852;3.816;2023-07-13T00:14:18;17.50;99.90
22765;DHT22;11549;50.852;3.816;2023-07-13T00:16:48;17.50;99.90
22765;DHT22;11549;50.852;3.816;2023-07-13T00:19:16;17.30;99.90
22765;DHT22;11549;50.852;3.816;2023-07-13T00:21:45;17.20;99.90
22765;DHT22;11549;50.852;3.816;2023-07-13T00:24:16;17.30;99.90
22765;DHT22;11549;50.852;3.816;2023-07-13T00:26:49;17.30;99.90
22765;DHT22;11549;50.852;3.816;2023-07-13T00:29:17;17.30;99.90
22765;DHT22;11549;50.852;3.816;2023-07-13T00:31:50;17.30;99.90
22765;DHT22;11549;50.852;3.816;2023-07-13T00:34:18;17.30;99.90
22765;DHT22;11549;50.852;3.816;2023-07-13T00:36:47;17.30;99.90
22765;DHT22;11549;50.852;3.816;2023-07-13T00:39:16;17.30;99.90
22765;DHT22;11549;50.852;3.816;2023-07-13T00:41:44;17.20;99.90
22765;DHT22;11549;50.852;3.816;2023-07-13T00:44:14;17.10;99.90
22765;DHT22;11549;50.852;3.816;2023-07-13T00:46:43;17.20;99.90
22765;DHT22;11549;50.852;3.816;2023-07-13T00:49:15;17.20;99.90
22765;DHT22;11549;50.852;3.816;2023-07-13T00:51:49;17.20;99.90
22765;DHT22;11549;50.852;3.816;2023-07-13T00:54:21;17.10;99.90
22765;DHT22;11549;50.852;3.816;2023-07-13T00:56:53;17.20;99.90
22765;DHT22;11549;50.852;3.816;2023-07-13T00:59:25;17.20;99.90
22765;DHT22;11549;50.852;3.816;2023-07-13T01:01:54;17.10;99.90
22765;DHT22;11549;50.852;3.816;2023-07-13T01:04:25;17.10;99.90
22765;DHT22;11549;50.852;3.816;2023-07-13T01:06:54;17.10;99.90
22765;DHT22;11549;50.852;3.816;2023-07-13T01:09:27;17.10;99.90
22765;DHT22;11549;50.852;3.816;2023-07-13T01:11:55;17.20;99.90
22765;DHT22;11549;50.852;3.816;2023-07-13T01:14:24;17.00;99.90
22765;DHT22;11549;50.852;3.816;2023-07-13T01:16:53;17.00;99.90
22765;DHT22;11549;50.852;3.816;2023-07-13T01:19:32;17.00;99.90
22765;DHT22;11549;50.852;3.816;2023-07-13T01:22:07;17.00;99.90
22765;DHT22;11549;50.852;3.816;2023-07-13T01:24:40;16.90;99.90
22765;DHT22;11549;50.852;3.816;2023-07-13T01:27:10;16.80;99.90
22765;DHT22;11549;50.852;3.816;2023-07-13T01:29:40;16.90;99.90
22765;DHT22;11549;50.852;3.816;2023-07-13T01:32:12;16.90;99.90
22765;DHT22;11549;50.852;3.816;2023-07-13T01:34:41;16.80;99.90
22765;DHT22;11549;50.852;3.816;2023-07-13T01:37:13;16.70;99.90
22765;DHT22;11549;50.852;3.816;2023-07-13T01:39:41;16.70;99.90
22765;DHT22;11549;50.852;3.816;2023-07-13T01:42:09;16.70;99.90
22765;DHT22;11549;50.852;3.816;2023-07-13T01:44:38;16.70;99.90
22765;DHT22;11549;50.852;3.816;2023-07-13T01:47:07;16.70;99.90
22765;DHT22;11549;50.852;3.816;2023-07-13T01:49:35;16.70;99.90
22765;DHT22;11549;50.852;3.816;2023-07-13T01:52:05;16.70;99.90
22765;DHT22;11549;50.852;3.816;2023-07-13T01:54:35;16.70;99.90
22765;DHT22;11549;50.852;3.816;2023-07-13T01:57:03;16.70;99.90
22765;DHT22;11549;50.852;3.816;2023-07-13T01:59:33;16.60;99.90
22765;DHT22;11549;50.852;3.816;2023-07-13T02:02:01;16.60;99.90
22765;DHT22;11549;50.852;3.816;2023-07-13T02:04:30;16.60;99.90
22765;DHT22;11549;50.852;3.816;2023-07-13T02:06:59;16.60;99.90
22765;DHT22;11549;50.852;3.816;2023-07-13T02:09:28;16.70;99.90
22765;DHT22;11549;50.852;3.816;2023-07-13T02:12:02;16.60;99.90
22765;DHT22;11549;50.852;3.816;2023-07-13T02:14:31;16.60;99.90
22765;DHT22;11549;50.852;3.816;2023-07-13T02:16:59;16.60;99.90
22765;DHT22;11549;50.852;3.816;2023-07-13T02:19:28;16.50;99.90
22765;DHT22;11549;50.852;3.816;2023-07-13T02:21:56;16.50;99.90
22765;DHT22;11549;50.852;3.816;2023-07-13T02:24:25;16.40;99.90
22765;DHT22;11549;50.852;3.816;2023-07-13T02:26:54;16.40;99.90
22765;DHT22;11549;50.852;3.816;2023-07-13T02:29:25;16.40;99.90
22765;DHT22;11549;50.852;3.816;2023-07-13T02:31:53;16.40;99.90
22765;DHT22;11549;50.852;3.816;2023-07-13T02:34:22;16.30;99.90
22765;DHT22;11549;50.852;3.816;2023-07-13T02:36:50;16.30;99.90
22765;DHT22;11549;50.852;3.816;2023-07-13T02:39:19;16.30;99.90
22765;DHT22;11549;50.852;3.816;2023-07-13T02:41:49;16.30;99.90
22765;DHT22;11549;50.852;3.816;2023-07-13T02:44:17;16.20;99.90
22765;DHT22;11549;50.852;3.816;2023-07-13T02:46:47;16.10;99.90
22765;DHT22;11549;50.852;3.816;2023-07-13T02:49:15;16.20;99.90
22765;DHT22;11549;50.852;3.816;2023-07-13T02:51:44;16.20;99.90
22765;DHT22;11549;50.852;3.816;2023-07-13T02:54:12;16.20;99.90
22765;DHT22;11549;50.852;3.816;2023-07-13T02:56:56;16.10;99.90
22765;DHT22;11549;50.852;3.816;2023-07-13T02:59:42;16.20;99.90
22765;DHT22;11549;50.852;3.816;2023-07-13T03:02:12;16.20;99.90
22765;DHT22;11549;50.852;3.816;2023-07-13T03:04:40;16.00;99.90
22765;DHT22;11549;50.852;3.816;2023-07-13T03:07:09;16.10;99.90
22765;DHT22;11549;50.852;3.816;2023-07-13T03:09:37;16.10;99.90
22765;DHT22;11549;50.852;3.816;2023-07-13T03:12:07;16.20;99.90
22765;DHT22;11549;50.852;3.816;2023-07-13T03:14:35;16.10;99.90
22765;DHT22;11549;50.852;3.816;2023-07-13T03:17:03;16.10;99.90
22765;DHT22;11549;50.852;3.816;2023-07-13T03:19:34;16.10;99.90
22765;DHT22;11549;50.852;3.816;2023-07-13T03:22:02;16.00;99.90
22765;DHT22;11549;50.852;3.816;2023-07-13T03:24:34;16.00;99.90
22765;DHT22;11549;50.852;3.816;2023-07-13T03:27:09;16.00;99.90
22765;DHT22;11549;50.852;3.816;2023-07-13T03:29:37;16.00;99.90
22765;DHT22;11549;50.852;3.816;2023-07-13T03:32:06;16.00;99.90
22765;DHT22;11549;50.852;3.816;2023-07-13T03:34:36;16.00;99.90
22765;DHT22;11549;50.852;3.816;2023-07-13T03:37:05;16.00;99.90
22765;DHT22;11549;50.852;3.816;2023-07-13T03:39:34;16.20;99.90
22765;DHT22;11549;50.852;3.816;2023-07-13T03:42:03;16.20;99.90
22765;DHT22;11549;50.852;3.816;2023-07-13T03:44:32;16.20;99.90
22765;DHT22;11549;50.852;3.816;2023-07-13T03:47:00;16.20;99.90
22765;DHT22;11549;50.852;3.816;2023-07-13T03:49:29;16.10;99.90
22765;DHT22;11549;50.852;3.816;2023-07-13T03:51:59;16.20;99.90
22765;DHT22;11549;50.852;3.816;2023-07-13T03:54:27;16.10;99.90
22765;DHT22;11549;50.852;3.816;2023-07-13T03:56:56;16.10;99.90
22765;DHT22;11549;50.852;3.816;2023-07-13T03:59:24;16.10;99.90
22765;DHT22;11549;50.852;3.816;2023-07-13T04:01:53;16.20;99.90
22765;DHT22;11549;50.852;3.816;2023-07-13T04:04:22;16.30;99.90
22765;DHT22;11549;50.852;3.816;2023-07-13T04:06:50;16.40;99.90
22765;DHT22;11549;50.852;3.816;2023-07-13T04:09:21;16.30;99.90
22765;DHT22;11549;50.852;3.816;2023-07-13T04:11:50;16.30;99.90
22765;DHT22;11549;50.852;3.816;2023-07-13T04:14:18;16.30;99.90
22765;DHT22;11549;50.852;3.816;2023-07-13T04:16:47;16.40;99.90
22765;DHT22;11549;50.852;3.816;2023-07-13T04:19:15;16.40;99.90
22765;DHT22;11549;50.852;3.816;2023-07-13T04:21:44;16.40;99.90
22765;DHT22;11549;50.852;3.816;2023-07-13T04:24:12;16.40;99.90
22765;DHT22;11549;50.852;3.816;2023-07-13T04:26:46;16.40;99.90
22765;DHT22;11549;50.852;3.816;2023-07-13T04:29:15;16.40;99.90
22765;DHT22;11549;50.852;3.816;2023-07-13T04:31:43;16.40;99.90
22765;DHT22;11549;50.852;3.816;2023-07-13T04:34:12;16.40;99.90
22765;DHT22;11549;50.852;3.816;2023-07-13T04:36:40;16.50;99.90
22765;DHT22;11549;50.852;3.816;2023-07-13T04:39:09;16.40;99.90
22765;DHT22;11549;50.852;3.816;2023-07-13T04:41:37;16.50;99.90
22765;DHT22;11549;50.852;3.816;2023-07-13T04:44:07;16.50;99.90
22765;DHT22;11549;50.852;3.816;2023-07-13T04:46:35;16.60;99.90
22765;DHT22;11549;50.852;3.816;2023-07-13T04:49:04;16.70;99.90
22765;DHT22;11549;50.852;3.816;2023-07-13T04:51:33;16.70;99.90
22765;DHT22;11549;50.852;3.816;2023-07-13T04:54:01;16.80;99.90
22765;DHT22;11549;50.852;3.816;2023-07-13T04:56:31;16.90;99.90
22765;DHT22;11549;50.852;3.816;2023-07-13T04:58:59;16.90;99.90
22765;DHT22;11549;50.852;3.816;2023-07-13T05:01:28;16.80;99.90
22765;DHT22;11549;50.852;3.816;2023-07-13T05:03:58;16.90;99.90
22765;DHT22;11549;50.852;3.816;2023-07-13T05:06:26;17.00;99.90
22765;DHT22;11549;50.852;3.816;2023-07-13T05:08:55;17.00;99.90
22765;DHT22;11549;50.852;3.816;2023-07-13T05:11:24;17.00;99.90
22765;DHT22;11549;50.852;3.816;2023-07-13T05:13:52;17.10;99.90
22765;DHT22;11549;50.852;3.816;2023-07-13T05:16:20;17.20;99.90
22765;DHT22;11549;50.852;3.816;2023-07-13T05:18:51;17.20;99.90
22765;DHT22;11549;50.852;3.816;2023-07-13T05:21:19;17.20;99.90
22765;DHT22;11549;50.852;3.816;2023-07-13T05:23:47;17.20;99.90
22765;DHT22;11549;50.852;3.816;2023-07-13T05:26:16;17.20;99.90
22765;DHT22;11549;50.852;3.816;2023-07-13T05:28:44;17.30;99.90
22765;DHT22;11549;50.852;3.816;2023-07-13T05:31:13;17.20;99.90
22765;DHT22;11549;50.852;3.816;2023-07-13T05:33:41;17.20;99.90
22765;DHT22;11549;50.852;3.816;2023-07-13T05:36:12;17.30;99.90
22765;DHT22;11549;50.852;3.816;2023-07-13T05:38:40;17.40;99.90
22765;DHT22;11549;50.852;3.816;2023-07-13T05:41:09;17.60;99.90
22765;DHT22;11549;50.852;3.816;2023-07-13T05:43:37;17.70;99.90
22765;DHT22;11549;50.852;3.816;2023-07-13T05:46:06;17.80;99.90
22765;DHT22;11549;50.852;3.816;2023-07-13T05:48:34;17.80;99.90
22765;DHT22;11549;50.852;3.816;2023-07-13T05:51:02;17.80;99.90
22765;DHT22;11549;50.852;3.816;2023-07-13T05:53:33;18.00;99.90
22765;DHT22;11549;50.852;3.816;2023-07-13T05:56:02;18.00;99.90
22765;DHT22;11549;50.852;3.816;2023-07-13T05:58:30;18.00;99.90
22765;DHT22;11549;50.852;3.816;2023-07-13T06:01:00;18.10;99.90
22765;DHT22;11549;50.852;3.816;2023-07-13T06:03:29;18.20;99.90
22765;DHT22;11549;50.852;3.816;2023-07-13T06:05:57;18.30;99.90
22765;DHT22;11549;50.852;3.816;2023-07-13T06:08:27;18.30;99.90
22765;DHT22;11549;50.852;3.816;2023-07-13T06:13:31;18.20;99.90
22765;DHT22;11549;50.852;3.816;2023-07-13T06:16:01;18.20;99.90
22765;DHT22;11549;50.852;3.816;2023-07-13T06:18:31;18.20;99.90
22765;DHT22;11549;50.852;3.816;2023-07-13T06:21:01;18.30;99.90
22765;DHT22;11549;50.852;3.816;2023-07-13T06:23:29;18.40;99.90
22765;DHT22;11549;50.852;3.816;2023-07-13T06:25:57;18.60;99.90
22765;DHT22;11549;50.852;3.816;2023-07-13T06:28:28;18.70;99.90
22765;DHT22;11549;50.852;3.816;2023-07-13T06:30:57;18.90;99.90
22765;DHT22;11549;50.852;3.816;2023-07-13T06:33:26;19.00;99.90
22765;DHT22;11549;50.852;3.816;2023-07-13T06:35:54;19.10;99.90
22765;DHT22;11549;50.852;3.816;2023-07-13T06:38:23;19.30;99.90
22765;DHT22;11549;50.852;3.816;2023-07-13T06:40:52;19.40;99.90
22765;DHT22;11549;50.852;3.816;2023-07-13T06:43:20;19.60;99.90
22765;DHT22;11549;50.852;3.816;2023-07-13T06:45:51;19.90;99.90
22765;DHT22;11549;50.852;3.816;2023-07-13T06:48:19;20.10;99.90
22765;DHT22;11549;50.852;3.816;2023-07-13T06:50:49;20.30;99.90
22765;DHT22;11549;50.852;3.816;2023-07-13T06:53:19;20.50;99.90
22765;DHT22;11549;50.852;3.816;2023-07-13T06:55:47;20.60;99.90
22765;DHT22;11549;50.852;3.816;2023-07-13T06:58:17;20.90;99.90
22765;DHT22;11549;50.852;3.816;2023-07-13T07:00:46;21.10;99.90
22765;DHT22;11549;50.852;3.816;2023-07-13T07:03:16;21.40;99.90
22765;DHT22;11549;50.852;3.816;2023-07-13T07:05:45;21.40;99.90
22765;DHT22;11549;50.852;3.816;2023-07-13T07:08:13;21.30;99.90
22765;DHT22;11549;50.852;3.816;2023-07-13T07:10:42;21.30;99.90
22765;DHT22;11549;50.852;3.816;2023-07-13T07:13:10;21.30;99.90
22765;DHT22;11549;50.852;3.816;2023-07-13T07:15:39;21.20;99.90
22765;DHT22;11549;50.852;3.816;2023-07-13T07:18:07;21.20;99.90
22765;DHT22;11549;50.852;3.816;2023-07-13T07:20:37;21.10;99.90
22765;DHT22;11549;50.852;3.816;2023-07-13T07:23:05;21.20;99.90
22765;DHT22;11549;50.852;3.816;2023-07-13T07:25:34;21.30;99.90
22765;DHT22;11549;50.852;3.816;2023-07-13T07:28:04;21.60;99.90
22765;DHT22;11549;50.852;3.816;2023-07-13T07:30:35;21.90;99.90
22765;DHT22;11549;50.852;3.816;2023-07-13T07:33:06;22.10;99.90
22765;DHT22;11549;50.852;3.816;2023-07-13T07:35:34;22.50;99.90
22765;DHT22;11549;50.852;3.816;2023-07-13T07:38:24;22.70;99.90
22765;DHT22;11549;50.852;3.816;2023-07-13T07:40:53;23.00;99.90
22765;DHT22;11549;50.852;3.816;2023-07-13T07:43:25;23.20;99.90
22765;DHT22;11549;50.852;3.816;2023-07-13T07:45:53;23.20;99.90
22765;DHT22;11549;50.852;3.816;2023-07-13T07:48:22;23.20;99.90
22765;DHT22;11549;50.852;3.816;2023-07-13T07:50:50;23.20;99.90
22765;DHT22;11549;50.852;3.816;2023-07-13T07:53:19;23.20;99.90
22765;DHT22;11549;50.852;3.816;2023-07-13T07:55:48;23.10;99.90
22765;DHT22;11549;50.852;3.816;2023-07-13T07:58:21;23.20;99.90
22765;DHT22;11549;50.852;3.816;2023-07-13T08:00:52;23.50;99.90
22765;DHT22;11549;50.852;3.816;2023-07-13T08:03:23;23.60;99.90
22765;DHT22;11549;50.852;3.816;2023-07-13T08:05:55;23.70;99.90
22765;DHT22;11549;50.852;3.816;2023-07-13T08:08:43;24.00;99.90
22765;DHT22;11549;50.852;3.816;2023-07-13T08:11:13;24.20;99.90
22765;DHT22;11549;50.852;3.816;2023-07-13T08:13:44;24.30;99.90
22765;DHT22;11549;50.852;3.816;2023-07-13T08:16:13;24.60;99.90
22765;DHT22;11549;50.852;3.816;2023-07-13T08:18:41;25.00;99.90
22765;DHT22;11549;50.852;3.816;2023-07-13T08:21:09;25.30;99.90
22765;DHT22;11549;50.852;3.816;2023-07-13T08:23:39;25.60;99.90
22765;DHT22;11549;50.852;3.816;2023-07-13T08:26:09;25.80;99.90
22765;DHT22;11549;50.852;3.816;2023-07-13T08:28:39;25.90;99.90
22765;DHT22;11549;50.852;3.816;2023-07-13T08:31:08;26.00;99.90
22765;DHT22;11549;50.852;3.816;2023-07-13T08:33:37;26.10;99.90
22765;DHT22;11549;50.852;3.816;2023-07-13T08:36:07;26.00;99.90
22765;DHT22;11549;50.852;3.816;2023-07-13T08:38:36;26.00;99.90
22765;DHT22;11549;50.852;3.816;2023-07-13T08:41:11;25.80;99.90
22765;DHT22;11549;50.852;3.816;2023-07-13T08:43:45;25.90;99.90
22765;DHT22;11549;50.852;3.816;2023-07-13T08:46:19;25.70;99.90
22765;DHT22;11549;50.852;3.816;2023-07-13T08:48:50;25.60;99.90
22765;DHT22;11549;50.852;3.816;2023-07-13T08:51:38;25.40;99.90
22765;DHT22;11549;50.852;3.816;2023-07-13T08:54:19;25.30;99.90
22765;DHT22;11549;50.852;3.816;2023-07-13T08:56:50;25.20;99.90
22765;DHT22;11549;50.852;3.816;2023-07-13T08:59:24;25.10;99.90
22765;DHT22;11549;50.852;3.816;2023-07-13T09:02:05;24.90;99.90
22765;DHT22;11549;50.852;3.816;2023-07-13T09:04:48;24.80;99.90
22765;DHT22;11549;50.852;3.816;2023-07-13T09:07:24;24.90;99.90
22765;DHT22;11549;50.852;3.816;2023-07-13T09:10:05;25.20;99.90
22765;DHT22;11549;50.852;3.816;2023-07-13T09:12:43;25.20;99.90
22765;DHT22;11549;50.852;3.816;2023-07-13T09:15:24;24.80;99.90
22765;DHT22;11549;50.852;3.816;2023-07-13T09:17:56;24.80;99.90
22765;DHT22;11549;50.852;3.816;2023-07-13T09:20:31;25.00;99.90
22765;DHT22;11549;50.852;3.816;2023-07-13T09:23:04;25.10;99.90
22765;DHT22;11549;50.852;3.816;2023-07-13T09:25:35;25.00;99.90
22765;DHT22;11549;50.852;3.816;2023-07-13T09:28:11;24.70;99.90
22765;DHT22;11549;50.852;3.816;2023-07-13T09:30:46;24.50;99.90
22765;DHT22;11549;50.852;3.816;2023-07-13T09:33:18;24.20;99.90
22765;DHT22;11549;50.852;3.816;2023-07-13T09:35:47;24.40;99.90
22765;DHT22;11549;50.852;3.816;2023-07-13T09:38:18;24.40;99.90
22765;DHT22;11549;50.852;3.816;2023-07-13T09:40:59;24.50;99.90
22765;DHT22;11549;50.852;3.816;2023-07-13T09:43:29;24.60;99.90
22765;DHT22;11549;50.852;3.816;2023-07-13T09:45:59;24.90;99.90
22765;DHT22;11549;50.852;3.816;2023-07-13T09:48:34;25.20;99.90
22765;DHT22;11549;50.852;3.816;2023-07-13T09:51:13;25.40;99.90
22765;DHT22;11549;50.852;3.816;2023-07-13T09:53:42;25.40;99.90
22765;DHT22;11549;50.852;3.816;2023-07-13T09:56:21;25.40;99.90
22765;DHT22;11549;50.852;3.816;2023-07-13T09:58:50;25.10;99.90
22765;DHT22;11549;50.852;3.816;2023-07-13T10:01:31;25.00;99.90
22765;DHT22;11549;50.852;3.816;2023-07-13T10:03:59;24.70;99.90
22765;DHT22;11549;50.852;3.816;2023-07-13T10:06:28;24.70;99.90
22765;DHT22;11549;50.852;3.816;2023-07-13T10:08:57;25.00;99.90
22765;DHT22;11549;50.852;3.816;2023-07-13T10:11:28;25.20;99.90
22765;DHT22;11549;50.852;3.816;2023-07-13T10:13:58;25.70;99.90
22765;DHT22;11549;50.852;3.816;2023-07-13T10:16:33;26.00;99.90
22765;DHT22;11549;50.852;3.816;2023-07-13T10:19:05;26.10;99.90
22765;DHT22;11549;50.852;3.816;2023-07-13T10:21:38;25.80;99.90
22765;DHT22;11549;50.852;3.816;2023-07-13T10:24:16;26.00;99.90
22765;DHT22;11549;50.852;3.816;2023-07-13T10:26:48;26.30;99.90
22765;DHT22;11549;50.852;3.816;2023-07-13T10:29:18;26.40;99.90
22765;DHT22;11549;50.852;3.816;2023-07-13T10:31:48;26.50;99.90
22765;DHT22;11549;50.852;3.816;2023-07-13T10:34:17;26.50;99.90
22765;DHT22;11549;50.852;3.816;2023-07-13T10:36:47;26.70;99.90
22765;DHT22;11549;50.852;3.816;2023-07-13T10:39:19;27.00;99.40
22765;DHT22;11549;50.852;3.816;2023-07-13T10:41:51;27.60;99.60
22765;DHT22;11549;50.852;3.816;2023-07-13T10:44:24;27.90;98.70
22765;DHT22;11549;50.852;3.816;2023-07-13T10:46:59;28.30;97.80
22765;DHT22;11549;50.852;3.816;2023-07-13T10:49:29;27.90;96.70
22765;DHT22;11549;50.852;3.816;2023-07-13T10:51:59;28.20;96.30
22765;DHT22;11549;50.852;3.816;2023-07-13T10:54:30;28.10;96.40
22765;DHT22;11549;50.852;3.816;2023-07-13T10:57:14;27.80;96.60
22765;DHT22;11549;50.852;3.816;2023-07-13T10:59:46;27.90;98.20
22765;DHT22;11549;50.852;3.816;2023-07-13T11:02:25;27.80;99.10
22765;DHT22;11549;50.852;3.816;2023-07-13T11:04:56;27.60;99.50
22765;DHT22;11549;50.852;3.816;2023-07-13T11:07:28;27.60;99.60
22765;DHT22;11549;50.852;3.816;2023-07-13T11:09:57;27.20;99.90
22765;DHT22;11549;50.852;3.816;2023-07-13T11:15:12;26.60;99.90
22765;DHT22;11549;50.852;3.816;2023-07-13T11:17:50;26.40;99.90
22765;DHT22;11549;50.852;3.816;2023-07-13T11:20:34;26.10;99.90
22765;DHT22;11549;50.852;3.816;2023-07-13T11:23:20;25.70;99.90
22765;DHT22;11549;50.852;3.816;2023-07-13T11:25:54;25.00;99.90
22765;DHT22;11549;50.852;3.816;2023-07-13T11:28:25;24.20;99.90
22765;DHT22;11549;50.852;3.816;2023-07-13T11:33:58;22.40;99.90
22765;DHT22;11549;50.852;3.816;2023-07-13T11:36:36;21.90;99.90
22765;DHT22;11549;50.852;3.816;2023-07-13T11:39:28;21.60;99.90
22765;DHT22;11549;50.852;3.816;2023-07-13T11:42:03;21.50;99.90
22765;DHT22;11549;50.852;3.816;2023-07-13T11:44:34;21.40;99.90
22765;DHT22;11549;50.852;3.816;2023-07-13T11:51:05;21.60;99.90
22765;DHT22;11549;50.852;3.816;2023-07-13T11:53:39;21.60;99.90
22765;DHT22;11549;50.852;3.816;2023-07-13T11:56:08;21.80;99.90
22765;DHT22;11549;50.852;3.816;2023-07-13T11:58:37;21.90;99.90
22765;DHT22;11549;50.852;3.816;2023-07-13T12:01:06;21.90;99.90
22765;DHT22;11549;50.852;3.816;2023-07-13T12:03:35;22.00;99.90
22765;DHT22;11549;50.852;3.816;2023-07-13T12:06:25;22.00;99.90
22765;DHT22;11549;50.852;3.816;2023-07-13T12:08:59;21.90;99.90
22765;DHT22;11549;50.852;3.816;2023-07-13T12:11:34;21.90;99.90
22765;DHT22;11549;50.852;3.816;2023-07-13T12:14:15;21.90;99.90
22765;DHT22;11549;50.852;3.816;2023-07-13T12:16:44;22.00;99.90
22765;DHT22;11549;50.852;3.816;2023-07-13T12:19:18;22.20;99.90
22765;DHT22;11549;50.852;3.816;2023-07-13T12:21:53;22.30;99.90
22765;DHT22;11549;50.852;3.816;2023-07-13T12:24:23;22.60;99.90
22765;DHT22;11549;50.852;3.816;2023-07-13T12:26:53;22.90;99.90
22765;DHT22;11549;50.852;3.816;2023-07-13T12:29:21;23.00;99.90
22765;DHT22;11549;50.852;3.816;2023-07-13T12:31:50;23.10;99.90
22765;DHT22;11549;50.852;3.816;2023-07-13T12:34:21;23.10;99.90
22765;DHT22;11549;50.852;3.816;2023-07-13T12:36:52;23.20;99.90
22765;DHT22;11549;50.852;3.816;2023-07-13T12:39:23;23.20;99.90
22765;DHT22;11549;50.852;3.816;2023-07-13T12:41:53;23.60;99.90
22765;DHT22;11549;50.852;3.816;2023-07-13T12:44:27;24.10;99.90
22765;DHT22;11549;50.852;3.816;2023-07-13T12:46:59;24.60;99.90
22765;DHT22;11549;50.852;3.816;2023-07-13T12:49:32;25.10;99.90
22765;DHT22;11549;50.852;3.816;2023-07-13T12:52:10;25.30;99.90
22765;DHT22;11549;50.852;3.816;2023-07-13T12:54:41;25.60;99.90
22765;DHT22;11549;50.852;3.816;2023-07-13T12:57:26;25.90;99.90
22765;DHT22;11549;50.852;3.816;2023-07-13T12:59:54;26.00;99.90
22765;DHT22;11549;50.852;3.816;2023-07-13T13:02:28;26.20;99.90
22765;DHT22;11549;50.852;3.816;2023-07-13T13:04:58;26.40;99.90
22765;DHT22;11549;50.852;3.816;2023-07-13T13:07:28;26.50;99.90
22765;DHT22;11549;50.852;3.816;2023-07-13T13:09:57;26.90;99.90
22765;DHT22;11549;50.852;3.816;2023-07-13T13:12:25;26.90;99.90
22765;DHT22;11549;50.852;3.816;2023-07-13T13:14:54;27.20;99.90
22765;DHT22;11549;50.852;3.816;2023-07-13T13:17:26;27.40;99.90
22765;DHT22;11549;50.852;3.816;2023-07-13T13:19:57;27.30;99.90
22765;DHT22;11549;50.852;3.816;2023-07-13T13:22:25;27.30;99.90
22765;DHT22;11549;50.852;3.816;2023-07-13T13:24:55;27.30;99.90
22765;DHT22;11549;50.852;3.816;2023-07-13T13:27:23;27.20;99.90
22765;DHT22;11549;50.852;3.816;2023-07-13T13:29:52;27.20;99.90
22765;DHT22;11549;50.852;3.816;2023-07-13T13:32:21;27.30;99.90
22765;DHT22;11549;50.852;3.816;2023-07-13T13:34:49;27.50;99.90
22765;DHT22;11549;50.852;3.816;2023-07-13T13:37:20;27.70;99.90
22765;DHT22;11549;50.852;3.816;2023-07-13T13:39:50;27.90;97.60
22765;DHT22;11549;50.852;3.816;2023-07-13T13:42:35;27.90;98.70
22765;DHT22;11549;50.852;3.816;2023-07-13T13:45:05;27.60;99.30
22765;DHT22;11549;50.852;3.816;2023-07-13T13:47:33;27.60;97.70
22765;DHT22;11549;50.852;3.816;2023-07-13T13:50:12;27.60;97.00
22765;DHT22;11549;50.852;3.816;2023-07-13T13:52:42;27.50;98.20
22765;DHT22;11549;50.852;3.816;2023-07-13T13:55:14;27.50;99.00
22765;DHT22;11549;50.852;3.816;2023-07-13T13:57:44;27.40;98.10
22765;DHT22;11549;50.852;3.816;2023-07-13T14:00:13;27.00;97.50
22765;DHT22;11549;50.852;3.816;2023-07-13T14:02:47;27.10;97.00
22765;DHT22;11549;50.852;3.816;2023-07-13T14:05:24;26.90;96.60
22765;DHT22;11549;50.852;3.816;2023-07-13T14:07:54;27.10;97.40
22765;DHT22;11549;50.852;3.816;2023-07-13T14:10:23;27.10;96.60
22765;DHT22;11549;50.852;3.816;2023-07-13T14:12:54;27.20;97.70
22765;DHT22;11549;50.852;3.816;2023-07-13T14:15:27;27.30;98.20
22765;DHT22;11549;50.852;3.816;2023-07-13T14:17:57;27.40;95.40
22765;DHT22;11549;50.852;3.816;2023-07-13T14:20:26;27.40;96.30
22765;DHT22;11549;50.852;3.816;2023-07-13T14:22:56;27.50;94.80
22765;DHT22;11549;50.852;3.816;2023-07-13T14:25:25;27.40;94.50
22765;DHT22;11549;50.852;3.816;2023-07-13T14:27:57;27.70;92.20
22765;DHT22;11549;50.852;3.816;2023-07-13T14:30:27;27.70;90.60
22765;DHT22;11549;50.852;3.816;2023-07-13T14:32:56;27.70;90.40
22765;DHT22;11549;50.852;3.816;2023-07-13T14:35:24;27.70;91.40
22765;DHT22;11549;50.852;3.816;2023-07-13T14:37:54;27.60;92.30
22765;DHT22;11549;50.852;3.816;2023-07-13T14:40:29;27.50;92.00
22765;DHT22;11549;50.852;3.816;2023-07-13T14:42:59;27.50;91.10
22765;DHT22;11549;50.852;3.816;2023-07-13T14:45:28;27.50;90.70
22765;DHT22;11549;50.852;3.816;2023-07-13T14:47:58;27.30;90.50
22765;DHT22;11549;50.852;3.816;2023-07-13T14:50:30;26.90;90.30
22765;DHT22;11549;50.852;3.816;2023-07-13T14:52:59;26.80;90.60
22765;DHT22;11549;50.852;3.816;2023-07-13T14:55:27;26.70;91.00
22765;DHT22;11549;50.852;3.816;2023-07-13T14:57:55;26.90;92.30
22765;DHT22;11549;50.852;3.816;2023-07-13T15:00:26;27.00;92.30
22765;DHT22;11549;50.852;3.816;2023-07-13T15:02:57;26.70;91.40
22765;DHT22;11549;50.852;3.816;2023-07-13T15:05:28;26.60;91.10
22765;DHT22;11549;50.852;3.816;2023-07-13T15:07:59;26.60;91.40
22765;DHT22;11549;50.852;3.816;2023-07-13T15:10:31;26.40;91.50
22765;DHT22;11549;50.852;3.816;2023-07-13T15:13:01;26.30;91.30
22765;DHT22;11549;50.852;3.816;2023-07-13T15:15:34;26.10;92.20
22765;DHT22;11549;50.852;3.816;2023-07-13T15:18:03;26.00;94.40
22765;DHT22;11549;50.852;3.816;2023-07-13T15:20:33;26.30;93.50
22765;DHT22;11549;50.852;3.816;2023-07-13T15:23:02;26.40;92.40
22765;DHT22;11549;50.852;3.816;2023-07-13T15:25:33;26.50;91.30
22765;DHT22;11549;50.852;3.816;2023-07-13T15:28:01;26.50;91.30
22765;DHT22;11549;50.852;3.816;2023-07-13T15:30:33;26.50;91.20
22765;DHT22;11549;50.852;3.816;2023-07-13T15:33:16;26.60;90.70
22765;DHT22;11549;50.852;3.816;2023-07-13T15:35:45;26.60;91.10
22765;DHT22;11549;50.852;3.816;2023-07-13T15:38:17;26.60;91.60
22765;DHT22;11549;50.852;3.816;2023-07-13T15:40:46;26.70;90.40
22765;DHT22;11549;50.852;3.816;2023-07-13T15:43:15;26.30;91.50
22765;DHT22;11549;50.852;3.816;2023-07-13T15:45:46;26.20;92.00
22765;DHT22;11549;50.852;3.816;2023-07-13T15:48:17;26.20;93.10
22765;DHT22;11549;50.852;3.816;2023-07-13T15:50:48;26.00;92.70
22765;DHT22;11549;50.852;3.816;2023-07-13T15:53:20;26.10;93.50
22765;DHT22;11549;50.852;3.816;2023-07-13T15:55:50;26.10;92.00
22765;DHT22;11549;50.852;3.816;2023-07-13T15:58:19;26.30;90.10
22765;DHT22;11549;50.852;3.816;2023-07-13T16:00:49;26.30;91.10
22765;DHT22;11549;50.852;3.816;2023-07-13T16:03:19;26.00;90.90
22765;DHT22;11549;50.852;3.816;2023-07-13T16:05:48;25.70;91.30